Time;durP1;ratioP1;P1;durP2;ratioP2;P2;SDS_P1;SDS_P2;PMS_P1;PMS_P2;Temp;Humidity;BMP_temperature;BMP_pressure;BME280_temperature;BME280_humidity;BME280_pressure;Samples;Min_cycle;Max_cycle;Signal;HPM_P1;HPM_P2
2022/09/07 00:02:12;;;;;;;7.20;3.35;;;;;;;16.91;48.93;100470.88;6037079;23;101306;-85
2022/09/07 00:04:37;;;;;;;12.55;3.53;;;;;;;16.92;49.22;100469.94;6036997;23;96711;-85
2022/09/07 00:07:03;;;;;;;6.30;2.67;;;;;;;16.93;49.03;100474.31;6058919;23;97606;-84
2022/09/07 00:09:29;;;;;;;6.20;3.88;;;;;;;16.79;48.63;100445.94;6036224;23;98004;-83
2022/09/07 00:11:54;;;;;;;7.78;3.55;;;;;;;17.03;48.70;100469.31;6037109;23;101052;-84
2022/09/07 00:14:20;;;;;;;12.52;3.42;;;;;;;16.83;49.08;100460.72;6037526;23;96945;-83
2022/09/07 00:16:45;;;;;;;9.68;3.08;;;;;;;16.93;49.39;100458.41;6037115;23;96846;-85
2022/09/07 00:19:12;;;;;;;5.97;2.78;;;;;;;16.79;49.42;100456.53;6061696;23;97564;-85
2022/09/07 00:21:37;;;;;;;7.40;3.20;;;;;;;16.85;49.27;100455.34;6012045;23;99817;-84
2022/09/07 00:24:03;;;;;;;5.55;2.83;;;;;;;16.78;49.71;100453.97;6037339;23;97072;-84
2022/09/07 00:26:29;;;;;;;5.65;3.05;;;;;;;16.74;49.70;100456.75;6060151;23;97194;-84
2022/09/07 00:28:57;;;;;;;7.32;3.00;;;;;;;16.62;49.67;100438.91;6061984;23;98118;-84
2022/09/07 00:31:23;;;;;;;10.02;2.90;;;;;;;16.67;49.80;100438.66;6036066;23;101378;-82
2022/09/07 00:33:50;;;;;;;6.57;3.33;;;;;;;16.75;49.61;100436.41;6037902;23;96642;-84
2022/09/07 00:36:17;;;;;;;7.47;3.05;;;;;;;16.84;49.72;100445.66;6012764;23;97230;-84
2022/09/07 00:38:43;;;;;;;5.20;2.60;;;;;;;16.63;50.20;100427.34;6036369;23;97928;-83
2022/09/07 00:41:10;;;;;;;6.18;2.92;;;;;;;16.52;50.16;100420.06;6037318;23;97913;-85
2022/09/07 00:43:38;;;;;;;11.43;3.08;;;;;;;16.65;49.72;100438.75;6061621;23;96685;-83
2022/09/07 00:46:05;;;;;;;6.35;3.00;;;;;;;16.49;49.93;100432.59;6037087;23;97495;-84
2022/09/07 00:48:36;;;;;;;4.90;2.60;;;;;;;16.55;49.97;100445.53;6035512;23;101294;-84
2022/09/07 00:51:05;;;;;;;6.33;2.37;;;;;;;16.40;49.63;100427.81;6037189;23;97409;-84
2022/09/07 00:53:55;;;;;;;6.75;3.13;;;;;;;16.43;49.94;100456.78;6036832;23;97107;-84
2022/09/07 00:56:23;;;;;;;7.10;2.55;;;;;;;16.42;50.06;100452.44;6036220;23;96936;-84
2022/09/07 00:58:49;;;;;;;5.35;2.47;;;;;;;16.23;50.22;100429.63;6061139;23;99195;-85
2022/09/07 01:01:15;;;;;;;4.38;2.60;;;;;;;16.40;50.34;100438.41;6012556;23;100107;-85
2022/09/07 01:03:44;;;;;;;6.03;2.53;;;;;;;16.45;50.16;100439.88;6013150;23;96894;-85
2022/09/07 01:06:18;;;;;;;6.18;2.78;;;;;;;16.35;49.96;100433.41;6087684;23;96820;-84
2022/09/07 01:08:46;;;;;;;4.35;2.67;;;;;;;16.28;50.02;100416.13;6011244;23;100173;-84
2022/09/07 01:11:12;;;;;;;6.72;3.38;;;;;;;16.35;49.82;100437.81;6036912;23;98178;-86
2022/09/07 01:13:40;;;;;;;5.78;2.90;;;;;;;16.22;49.98;100427.91;6036282;23;97177;-85
2022/09/07 01:16:56;;;;;;;5.47;2.65;;;;;;;16.18;50.41;100430.84;6036334;23;97412;-85
2022/09/07 01:19:25;;;;;;;8.43;2.75;;;;;;;16.23;50.34;100434.06;5999912;23;98480;-82
2022/09/07 01:21:56;;;;;;;5.50;2.72;;;;;;;16.21;50.28;100433.31;6060886;23;98368;-84
2022/09/07 01:24:53;;;;;;;8.02;2.92;;;;;;;16.20;50.08;100428.94;6061703;23;96574;-82
2022/09/07 01:27:38;;;;;;;5.63;2.72;;;;;;;16.23;50.05;100434.94;6086884;23;97308;-82
2022/09/07 01:30:07;;;;;;;4.80;2.33;;;;;;;16.26;50.22;100436.53;6037236;23;101495;-85
2022/09/07 01:32:48;;;;;;;7.07;2.55;;;;;;;16.21;50.30;100438.59;6011920;23;101456;-84
2022/09/07 01:35:20;;;;;;;8.20;3.40;;;;;;;16.20;50.30;100428.94;6037966;23;97235;-84
2022/09/07 01:37:59;;;;;;;7.93;2.28;;;;;;;16.08;50.28;100409.28;6036419;23;96987;-83
2022/09/07 01:40:39;;;;;;;6.70;2.38;;;;;;;16.23;49.95;100423.47;6037622;23;99037;-82
2022/09/07 01:43:13;;;;;;;5.60;2.40;;;;;;;16.16;49.89;100404.41;6037844;23;97799;-84
2022/09/07 01:45:40;;;;;;;6.32;2.90;;;;;;;16.21;49.98;100415.63;6037479;23;97053;-85
2022/09/07 01:48:08;;;;;;;4.30;2.28;;;;;;;16.12;50.68;100410.84;6036476;23;97134;-84
2022/09/07 01:50:39;;;;;;;6.78;3.03;;;;;;;16.12;50.86;100407.34;6062357;23;97371;-86
2022/09/07 01:53:32;;;;;;;6.88;2.85;;;;;;;16.12;50.62;100407.34;6037800;23;98293;-85
2022/09/07 01:56:14;;;;;;;12.00;2.45;;;;;;;16.09;50.92;100400.41;6038035;23;97277;-83
2022/09/07 01:59:00;;;;;;;;;;;;;;;16.07;51.23;100407.59;6014234;23;97289;-85
2022/09/07 02:01:33;;;;;;;3.95;2.42;;;;;;;16.10;51.00;100406.56;6042212;23;98404;-82
2022/09/07 02:04:04;;;;;;;6.30;2.67;;;;;;;15.86;51.41;100377.03;6043897;23;96577;-84
2022/09/07 02:06:47;;;;;;;4.50;2.37;;;;;;;16.12;51.39;100418.78;6036741;23;96819;-83
2022/09/07 02:09:19;;;;;;;7.85;2.92;;;;;;;16.03;51.58;100390.19;6038233;23;97151;-85
2022/09/07 02:11:46;;;;;;;5.05;2.40;;;;;;;16.01;51.25;100390.25;6037224;23;101224;-84
2022/09/07 02:14:35;;;;;;;8.27;2.85;;;;;;;15.96;51.80;100408.16;6037889;23;101057;-84
2022/09/07 02:17:16;;;;;;;6.95;2.20;;;;;;;15.90;51.81;100389.13;6037243;23;96908;-84
2022/09/07 02:19:51;;;;;;;5.35;2.50;;;;;;;15.92;52.11;100409.28;6037843;23;97210;-85
2022/09/07 02:22:21;;;;;;;6.05;2.65;;;;;;;15.82;51.98;100414.25;6037454;23;100833;-85
2022/09/07 02:24:51;;;;;;;5.85;2.83;;;;;;;15.90;51.84;100418.25;6038025;23;98168;-84
2022/09/07 02:27:23;;;;;;;9.00;2.35;;;;;;;15.86;51.88;100422.88;6036816;23;96938;-84
2022/09/07 02:29:50;;;;;;;5.90;2.40;;;;;;;15.80;52.22;100417.91;6037715;23;97214;-85
2022/09/07 02:32:17;;;;;;;4.55;2.35;;;;;;;15.73;52.40;100408.56;6012924;23;100989;-84
2022/09/07 02:34:42;;;;;;;5.13;2.67;;;;;;;15.61;52.62;100391.53;6037876;23;101399;-84
2022/09/07 02:37:09;;;;;;;5.55;2.90;;;;;;;15.65;52.37;100386.91;6013363;23;97057;-85
2022/09/07 02:39:35;;;;;;;5.38;2.90;;;;;;;15.73;52.21;100398.84;6037008;23;96839;-84
2022/09/07 02:42:00;;;;;;;6.65;2.80;;;;;;;15.71;52.21;100405.19;6013208;23;101067;-83
2022/09/07 02:44:31;;;;;;;6.47;2.75;;;;;;;15.62;52.77;100394.13;6062398;23;97836;-83
2022/09/07 02:47:13;;;;;;;5.70;2.77;;;;;;;15.59;52.79;100399.56;6061710;23;96954;-84
2022/09/07 02:49:57;;;;;;;6.07;2.40;;;;;;;15.59;52.50;100402.22;6037667;23;96991;-84
2022/09/07 02:52:28;;;;;;;5.43;3.10;;;;;;;15.59;52.41;100407.50;6037450;23;101500;-84
2022/09/07 02:55:23;;;;;;;8.02;2.63;;;;;;;15.46;52.81;100395.84;6038252;23;99997;-84
2022/09/07 02:58:27;;;;;;;5.35;2.65;;;;;;;15.50;52.67;100405.31;6035498;23;97433;-84
2022/09/07 03:01:11;;;;;;;4.28;2.05;;;;;;;15.48;52.72;100398.44;6054578;23;97297;-84
2022/09/07 03:03:59;;;;;;;7.60;2.85;;;;;;;15.44;52.76;100397.72;6037242;23;100981;-84
2022/09/07 03:06:31;;;;;;;6.78;3.33;;;;;;;15.44;52.43;100397.72;6087234;23;97782;-84
2022/09/07 03:08:58;;;;;;;4.53;2.50;;;;;;;15.30;52.73;100379.06;6061324;23;97036;-84
2022/09/07 03:11:24;;;;;;;8.27;2.60;;;;;;;15.40;52.75;100393.53;6037744;23;96847;-84
2022/09/07 03:13:49;;;;;;;5.40;2.45;;;;;;;15.40;52.42;100404.97;6037196;23;97445;-84
2022/09/07 03:16:15;;;;;;;5.15;2.50;;;;;;;15.30;52.73;100397.59;6013228;23;100862;-84
2022/09/07 03:18:42;;;;;;;6.90;3.17;;;;;;;15.15;52.64;100397.47;6060981;23;97040;-83
2022/09/07 03:21:07;;;;;;;9.68;2.80;;;;;;;15.07;52.98;100398.81;6037870;23;97108;-86
2022/09/07 03:23:33;;;;;;;5.55;2.85;;;;;;;15.11;52.92;100401.19;6060992;23;97383;-84
2022/09/07 03:25:58;;;;;;;8.20;3.10;;;;;;;15.16;52.85;100403.63;6037139;23;101566;-83
2022/09/07 03:28:23;;;;;;;5.00;2.35;;;;;;;15.08;52.94;100393.44;6061876;23;97044;-84
2022/09/07 03:30:49;;;;;;;5.53;2.13;;;;;;;15.04;53.44;100398.94;6036000;23;97303;-84
2022/09/07 03:33:34;;;;;;;6.75;2.80;;;;;;;15.10;53.29;100396.00;6037775;23;97481;-84
2022/09/07 03:36:01;;;;;;;11.82;2.88;;;;;;;15.16;53.20;100393.88;6060918;23;100336;-84
2022/09/07 03:38:26;;;;;;;7.40;2.20;;;;;;;15.12;53.11;100396.75;6037584;23;97133;-84
2022/09/07 03:41:04;;;;;;;9.70;2.70;;;;;;;15.12;53.01;100389.69;6061347;23;96849;-83
2022/09/07 03:43:30;;;;;;;3.90;2.28;;;;;;;15.02;53.13;100383.16;6037785;23;98108;-82
2022/09/07 03:45:57;;;;;;;5.55;2.90;;;;;;;14.80;53.48;100375.47;6012822;23;101558;-85
2022/09/07 03:48:23;;;;;;;9.20;2.97;;;;;;;14.76;54.30;100383.66;6036354;23;97614;-86
2022/09/07 03:50:59;;;;;;;6.47;2.60;;;;;;;14.63;54.85;100368.41;6012697;23;97341;-86
2022/09/07 03:53:24;;;;;;;10.50;3.88;;;;;;;14.75;55.61;100380.16;6038292;23;98539;-86
2022/09/07 03:55:58;;;;;;;5.65;2.45;;;;;;;14.71;54.88;100374.16;6060596;23;97778;-84
2022/09/07 03:58:24;;;;;;;5.63;2.97;;;;;;;14.76;55.21;100387.13;6013355;23;97159;-84
2022/09/07 04:00:49;;;;;;;7.25;2.53;;;;;;;14.83;54.59;100377.94;6035835;23;97300;-82
2022/09/07 04:03:14;;;;;;;11.60;2.90;;;;;;;14.85;54.08;100376.09;6037637;23;100216;-87
2022/09/07 04:05:40;;;;;;;6.97;3.00;;;;;;;14.78;54.42;100366.78;6036929;23;100884;-84
2022/09/07 04:08:05;;;;;;;5.35;2.40;;;;;;;14.60;54.74;100342.16;6036738;23;97071;-82
2022/09/07 04:10:31;;;;;;;6.20;2.95;;;;;;;14.66;54.23;100370.91;6037025;23;97143;-82
2022/09/07 04:12:56;;;;;;;7.57;2.72;;;;;;;14.63;53.85;100383.38;6036624;23;98339;-86
2022/09/07 04:15:22;;;;;;;10.70;2.58;;;;;;;14.62;53.75;100382.53;6013330;23;101187;-84
2022/09/07 04:17:47;;;;;;;4.35;2.25;;;;;;;14.53;53.86;100364.50;6035654;23;96722;-83
2022/09/07 04:20:13;;;;;;;6.22;2.88;;;;;;;14.63;54.45;100378.09;6061930;23;96782;-83
2022/09/07 04:22:38;;;;;;;4.45;2.40;;;;;;;14.67;53.64;100374.41;6060993;23;97858;-83
2022/09/07 04:25:04;;;;;;;7.38;2.58;;;;;;;14.58;53.46;100366.94;6037597;23;100484;-83
2022/09/07 04:27:29;;;;;;;3.20;2.17;;;;;;;14.55;53.78;100375.84;6061305;23;97269;-81
2022/09/07 04:29:55;;;;;;;5.55;2.60;;;;;;;14.46;52.98;100355.16;6013666;23;97093;-84
2022/09/07 04:32:28;;;;;;;5.72;2.55;;;;;;;14.57;53.47;100362.56;5151145;27;96739;-86
2022/09/07 04:34:53;;;;;;;6.00;2.25;;;;;;;14.64;53.06;100371.91;5078390;27;97052;-83
2022/09/07 04:37:19;;;;;;;8.52;2.35;;;;;;;14.56;53.44;100372.28;5109810;27;97952;-86
2022/09/07 04:39:44;;;;;;;5.07;2.35;;;;;;;14.59;53.20;100363.34;5091574;27;97996;-83
2022/09/07 04:42:10;;;;;;;7.80;2.65;;;;;;;14.66;52.95;100360.34;5081871;27;97234;-83
2022/09/07 04:44:35;;;;;;;10.77;2.30;;;;;;;14.73;52.61;100373.22;5086446;27;98036;-83
2022/09/07 04:47:01;;;;;;;6.32;2.50;;;;;;;14.70;52.57;100361.88;5067615;27;101299;-83
2022/09/07 04:49:26;;;;;;;9.52;3.50;;;;;;;14.73;52.65;100367.94;5076298;27;101231;-84
2022/09/07 04:51:51;;;;;;;9.15;2.50;;;;;;;14.71;52.54;100371.50;5086590;27;96722;-84
2022/09/07 04:54:17;;;;;;;7.60;2.25;;;;;;;14.56;52.85;100367.00;5080848;27;96876;-84
2022/09/07 04:56:42;;;;;;;7.50;2.42;;;;;;;14.65;52.69;100369.16;5080063;27;101182;-84
2022/09/07 04:59:08;;;;;;;7.13;2.63;;;;;;;14.62;52.59;100379.03;5079402;27;101164;-84
2022/09/07 05:01:33;;;;;;;7.03;2.60;;;;;;;14.58;52.76;100351.94;5093353;27;97310;-83
2022/09/07 05:04:00;;;;;;;6.20;2.30;;;;;;;14.89;52.38;100369.75;5098324;27;96846;-84
2022/09/07 05:06:26;;;;;;;5.90;2.38;;;;;;;15.04;51.60;100375.16;5080476;27;97554;-85
2022/09/07 05:08:53;;;;;;;7.75;2.45;;;;;;;15.27;51.54;100376.59;5060775;27;101569;-85
2022/09/07 05:11:20;;;;;;;9.63;2.72;;;;;;;15.39;50.54;100374.19;5093584;27;96972;-85
2022/09/07 05:13:45;;;;;;;6.82;2.97;;;;;;;15.48;50.60;100377.28;5080587;27;96829;-85
2022/09/07 05:16:13;;;;;;;5.25;2.33;;;;;;;15.55;50.04;100366.25;5103423;27;98596;-86
2022/09/07 05:18:39;;;;;;;5.65;2.42;;;;;;;15.57;50.11;100366.19;5093905;27;99649;-82
2022/09/07 05:21:13;;;;;;;6.50;2.63;;;;;;;15.66;50.19;100370.13;5096027;27;97251;-87
2022/09/07 05:23:39;;;;;;;8.57;2.60;;;;;;;15.74;49.70;100371.44;5093525;27;96885;-86
2022/09/07 05:26:05;;;;;;;6.18;2.60;;;;;;;15.73;49.79;100371.53;5073574;27;101123;-85
2022/09/07 05:28:32;;;;;;;8.30;1.92;;;;;;;15.53;50.01;100364.63;5091613;27;101708;-88
2022/09/07 05:31:05;;;;;;;8.82;2.85;;;;;;;15.56;49.73;100369.75;5074421;27;97480;-85
2022/09/07 05:33:30;;;;;;;6.47;2.88;;;;;;;15.64;49.95;100386.06;5091781;27;96699;-84
2022/09/07 05:35:57;;;;;;;7.72;2.50;;;;;;;15.65;49.65;100366.63;5088310;27;97435;-83
2022/09/07 05:38:24;;;;;;;6.75;2.78;;;;;;;15.79;49.86;100379.13;5088778;27;100018;-83
2022/09/07 05:40:50;;;;;;;13.70;2.90;;;;;;;15.89;49.56;100380.34;5091235;27;97244;-84
2022/09/07 05:43:16;;;;;;;7.47;2.40;;;;;;;15.99;48.96;100386.81;5075435;27;98032;-84
2022/09/07 05:45:41;;;;;;;10.95;3.13;;;;;;;16.10;48.73;100373.00;5077277;27;99926;-84
2022/09/07 05:48:07;;;;;;;6.90;2.60;;;;;;;16.14;48.37;100371.03;5061042;27;101092;-88
2022/09/07 05:50:34;;;;;;;10.23;3.05;;;;;;;16.26;47.75;100379.16;5078093;27;98382;-82
2022/09/07 05:53:00;;;;;;;7.45;2.28;;;;;;;16.15;48.01;100367.44;5091876;27;97191;-80
2022/09/07 05:55:25;;;;;;;4.97;2.58;;;;;;;16.22;48.03;100369.66;5070752;27;100043;-80
2022/09/07 05:57:51;;;;;;;11.82;2.78;;;;;;;16.39;47.99;100375.78;5075192;27;101360;-83
2022/09/07 06:00:17;;;;;;;10.55;3.05;;;;;;;16.36;47.71;100366.22;5056115;27;96884;-80
2022/09/07 06:02:42;;;;;;;9.05;2.88;;;;;;;16.42;47.46;100372.97;5071926;27;97040;-78
2022/09/07 06:05:09;;;;;;;9.45;2.75;;;;;;;16.25;47.23;100342.13;5109695;27;97866;-81
2022/09/07 06:07:35;;;;;;;9.18;2.85;;;;;;;16.40;47.16;100366.88;5074042;27;97696;-82
2022/09/07 06:10:01;;;;;;;8.98;2.63;;;;;;;16.69;47.19;100366.03;5078539;27;97318;-81
2022/09/07 06:12:26;;;;;;;8.20;2.60;;;;;;;16.84;46.20;100371.41;5077350;27;98284;-81
2022/09/07 06:14:52;;;;;;;7.53;2.88;;;;;;;17.13;45.80;100365.25;5056961;27;100670;-80
2022/09/07 06:17:18;;;;;;;10.10;2.90;;;;;;;17.61;45.07;100384.41;5075161;27;97944;-80
2022/09/07 06:19:43;;;;;;;6.43;3.22;;;;;;;17.74;45.04;100368.53;5069555;27;97039;-83
2022/09/07 06:22:09;;;;;;;10.60;2.67;;;;;;;17.96;44.38;100370.72;5075977;27;97165;-81
2022/09/07 06:24:34;;;;;;;6.55;3.10;;;;;;;18.04;44.22;100373.75;5078896;27;97498;-81
2022/09/07 06:27:00;;;;;;;9.90;2.97;;;;;;;18.19;43.86;100365.75;5062327;27;101561;-81
2022/09/07 06:29:25;;;;;;;6.28;2.65;;;;;;;18.47;44.03;100380.72;5072974;27;96914;-81
2022/09/07 06:31:51;;;;;;;6.90;2.65;;;;;;;18.76;43.45;100382.34;5078870;27;97207;-80
2022/09/07 06:34:16;;;;;;;4.85;2.45;;;;;;;19.20;42.60;100390.91;5062483;27;102388;-81
2022/09/07 06:36:43;;;;;;;7.32;3.10;;;;;;;19.62;41.71;100375.56;5075015;27;100985;-83
2022/09/07 06:39:09;;;;;;;12.65;2.67;;;;;;;20.00;42.11;100364.84;5064732;27;97166;-81
2022/09/07 06:41:34;;;;;;;8.55;2.97;;;;;;;20.54;41.02;100376.94;5080628;27;97278;-83
2022/09/07 06:44:00;;;;;;;12.55;3.15;;;;;;;20.97;39.97;100361.19;5088068;27;98038;-81
2022/09/07 06:46:26;;;;;;;7.68;2.60;;;;;;;21.89;38.30;100359.28;5085540;27;97807;-82
2022/09/07 06:48:52;;;;;;;11.15;3.67;;;;;;;22.59;36.40;100363.38;5076140;27;96885;-82
2022/09/07 06:51:21;;;;;;;9.13;3.00;;;;;;;23.47;35.21;100363.94;5071067;27;97664;-82
2022/09/07 06:53:47;;;;;;;8.95;2.75;;;;;;;24.13;34.46;100356.28;5082489;27;101100;-81
2022/09/07 06:56:19;;;;;;;8.02;3.08;;;;;;;24.59;33.09;100353.94;5093863;27;97400;-83
2022/09/07 06:58:45;;;;;;;5.65;3.42;;;;;;;25.04;32.80;100358.69;5078072;27;97032;-89
2022/09/07 07:01:15;;;;;;;7.35;3.08;;;;;;;25.91;31.83;100352.19;5078661;27;96988;-88
2022/09/07 07:03:42;;;;;;;9.93;3.35;;;;;;;25.82;31.28;100358.44;5072141;27;97170;-84
2022/09/07 07:06:07;;;;;;;6.45;3.33;;;;;;;26.20;31.02;100357.38;5064556;27;100552;-90
2022/09/07 07:08:33;;;;;;;11.18;3.30;;;;;;;26.47;31.28;100348.41;5069908;27;98175;-93
2022/09/07 07:11:10;;;;;;;6.90;3.40;;;;;;;27.55;29.58;100343.66;5064773;27;98178;-86
2022/09/07 07:13:36;;;;;;;15.95;3.42;;;;;;;27.53;29.91;100351.88;5065584;27;100397;-81
2022/09/07 07:16:04;;;;;;;9.40;3.35;;;;;;;28.68;28.88;100333.31;5078832;27;100967;-90
2022/09/07 07:18:30;;;;;;;8.73;3.38;;;;;;;29.17;28.14;100338.66;5073414;27;96869;-90
2022/09/07 07:20:55;;;;;;;10.50;3.20;;;;;;;28.92;28.00;100343.25;5068215;27;96944;-90
2022/09/07 07:23:21;;;;;;;9.40;3.20;;;;;;;28.96;27.62;100327.56;5094526;27;98139;-88
2022/09/07 07:25:46;;;;;;;6.97;3.22;;;;;;;29.87;27.35;100331.69;5115943;27;97897;-87
2022/09/07 07:28:12;;;;;;;10.55;3.33;;;;;;;30.51;26.30;100335.00;5091100;27;97305;-86
2022/09/07 07:30:38;;;;;;;11.80;3.63;;;;;;;30.29;26.25;100335.88;5079922;27;96909;-85
2022/09/07 07:33:04;;;;;;;6.85;3.03;;;;;;;30.68;26.31;100335.72;5098529;27;98505;-86
2022/09/07 07:35:29;;;;;;;10.40;3.40;;;;;;;31.01;25.76;100330.00;5076107;27;100209;-86
2022/09/07 07:37:55;;;;;;;11.43;4.18;;;;;;;31.91;25.28;100327.13;5108546;27;97291;-84
2022/09/07 07:40:20;;;;;;;5.57;2.90;;;;;;;31.97;25.01;100318.22;5091350;27;97813;-86
2022/09/07 07:42:46;;;;;;;10.35;3.58;;;;;;;31.70;24.57;100329.75;5073218;27;100940;-86
2022/09/07 07:45:13;;;;;;;7.57;3.33;;;;;;;31.52;25.29;100336.41;5077821;27;97070;-87
2022/09/07 07:47:38;;;;;;;7.97;3.88;;;;;;;31.46;25.25;100330.91;5090528;27;97627;-87
2022/09/07 07:50:05;;;;;;;12.80;3.67;;;;;;;31.84;25.01;100330.75;5049007;27;97211;-88
2022/09/07 07:52:35;;;;;;;13.07;4.03;;;;;;;32.08;24.98;100322.28;5096087;27;98420;-88
2022/09/07 07:55:01;;;;;;;7.55;2.63;;;;;;;32.70;24.08;100304.53;5066153;27;100217;-86
2022/09/07 07:57:27;;;;;;;8.40;3.30;;;;;;;32.73;24.07;100311.44;5066046;27;96710;-89
2022/09/07 07:59:53;;;;;;;7.55;3.40;;;;;;;32.88;23.95;100314.91;5080146;27;96862;-87
2022/09/07 08:02:19;;;;;;;10.85;3.90;;;;;;;32.65;24.46;100309.72;5089761;27;97221;-87
2022/09/07 08:04:44;;;;;;;7.90;3.35;;;;;;;33.10;24.34;100318.41;5091831;27;101353;-84
2022/09/07 08:07:12;;;;;;;12.32;3.33;;;;;;;32.78;23.99;100300.81;5106941;27;97234;-88
2022/09/07 08:09:43;;;;;;;8.57;3.63;;;;;;;32.53;24.81;100317.56;5079442;27;97393;-86
2022/09/07 08:12:10;;;;;;;;;;;;;;;31.58;25.22;100323.97;5075414;27;97961;-88
2022/09/07 08:14:39;;;;;;;8.85;3.53;;;;;;;30.97;25.99;100326.84;5081593;27;101602;-84
2022/09/07 08:17:10;;;;;;;10.02;3.35;;;;;;;30.81;26.28;100327.84;5084933;27;96787;-86
2022/09/07 08:19:36;;;;;;;11.52;3.80;;;;;;;31.04;26.17;100338.63;5094375;27;96858;-86
2022/09/07 08:22:02;;;;;;;8.60;3.20;;;;;;;30.31;26.94;100339.22;5100389;27;97362;-91
2022/09/07 08:24:30;;;;;;;7.45;3.60;;;;;;;30.52;27.11;100331.28;5082484;27;101440;-88
2022/09/07 08:26:56;;;;;;;9.05;3.60;;;;;;;30.68;27.00;100320.28;5058877;27;96815;-87
2022/09/07 08:29:22;;;;;;;5.00;3.35;;;;;;;30.68;27.54;100323.00;5087191;27;98739;-87
2022/09/07 08:31:47;;;;;;;7.78;3.30;;;;;;;31.08;27.28;100315.53;5073317;27;98155;-90
2022/09/07 08:34:13;;;;;;;4.85;3.35;;;;;;;31.22;26.93;100313.88;5072534;27;96815;-85
2022/09/07 08:36:39;;;;;;;8.23;3.40;;;;;;;31.83;26.61;100315.53;5054989;27;97434;-82
2022/09/07 08:39:04;;;;;;;6.47;4.00;;;;;;;31.85;26.76;100325.13;5072452;27;96962;-92
2022/09/07 08:41:48;;;;;;;7.10;4.03;;;;;;;31.01;27.62;100309.19;5068504;27;101281;-87
2022/09/07 08:44:17;;;;;;;11.35;4.88;;;;;;;31.42;27.19;100311.47;5054934;27;100539;-94
2022/09/07 08:46:51;;;;;;;5.10;3.25;;;;;;;31.98;26.67;100306.31;5076880;27;96658;-96
2022/09/07 08:49:22;;;;;;;11.80;4.22;;;;;;;31.15;26.92;100302.06;5065705;27;96953;-95
2022/09/07 08:52:01;;;;;;;5.85;3.85;;;;;;;30.81;27.31;100289.09;5075805;27;97094;-86
2022/09/07 08:54:27;;;;;;;10.18;3.95;;;;;;;31.50;27.75;100292.34;5074707;27;97472;-84
2022/09/07 08:56:55;;;;;;;8.70;4.38;;;;;;;31.31;27.60;100287.50;5052923;27;97571;-86
2022/09/07 08:59:30;;;;;;;7.55;3.35;;;;;;;31.43;27.51;100283.31;5052765;27;97284;-86
2022/09/07 09:01:55;;;;;;;8.90;3.58;;;;;;;31.44;27.73;100284.16;5063943;27;97741;-83
2022/09/07 09:04:23;;;;;;;11.52;4.03;;;;;;;31.43;27.62;100293.31;5053048;27;97745;-86
2022/09/07 09:07:26;;;;;;;6.15;3.80;;;;;;;31.15;27.43;100285.81;5052767;27;97334;-86
2022/09/07 09:10:29;;;;;;;8.88;4.25;;;;;;;31.41;27.77;100279.94;5065936;27;96937;-86
2022/09/07 09:13:09;;;;;;;6.35;3.85;;;;;;;31.61;27.24;100288.31;5068887;27;100899;-85
2022/09/07 09:15:47;;;;;;;10.18;4.22;;;;;;;31.85;27.16;100286.31;5069686;27;97219;-87
2022/09/07 09:18:44;;;;;;;12.43;4.05;;;;;;;32.00;27.00;100285.28;5056880;27;97033;-86
2022/09/07 09:21:15;;;;;;;7.72;3.55;;;;;;;32.45;26.78;100285.91;5070563;27;96781;-88
2022/09/07 09:23:42;;;;;;;5.22;3.50;;;;;;;31.72;26.63;100295.97;5050031;27;99159;-83
2022/09/07 09:26:19;;;;;;;8.13;3.53;;;;;;;31.82;26.99;100282.09;5076328;27;96757;-86
2022/09/07 09:28:44;;;;;;;8.63;4.45;;;;;;;32.05;26.87;100281.13;5069056;27;97417;-85
2022/09/07 09:31:19;;;;;;;7.85;3.92;;;;;;;32.24;26.47;100280.50;5075266;27;96980;-86
2022/09/07 09:34:04;;;;;;;7.97;3.78;;;;;;;31.91;26.66;100270.16;5082008;27;98153;-84
2022/09/07 09:37:00;;;;;;;5.72;3.58;;;;;;;31.97;27.01;100261.22;5095626;27;101346;-83
2022/09/07 09:39:32;;;;;;;8.52;4.05;;;;;;;32.18;26.73;100260.38;5085384;27;96917;-85
2022/09/07 09:42:10;;;;;;;5.50;3.83;;;;;;;32.07;26.41;100252.75;5094009;27;96866;-84
2022/09/07 09:44:37;;;;;;;6.60;4.15;;;;;;;31.84;26.72;100241.22;5083548;27;98077;-84
2022/09/07 09:47:03;;;;;;;8.13;3.80;;;;;;;32.23;27.06;100255.22;5068360;27;97431;-85
2022/09/07 09:49:34;;;;;;;10.98;4.07;;;;;;;32.30;27.08;100252.56;5073964;27;97682;-82
2022/09/07 09:52:02;;;;;;;10.18;3.78;;;;;;;33.17;26.38;100248.63;5089835;27;97024;-85
2022/09/07 09:54:38;;;;;;;10.63;4.38;;;;;;;32.95;26.38;100241.56;5086795;27;97653;-86
2022/09/07 09:57:04;;;;;;;10.63;3.55;;;;;;;32.35;26.37;100244.66;5089710;27;97876;-86
2022/09/07 09:59:31;;;;;;;5.63;3.60;;;;;;;32.13;26.59;100235.69;5094578;27;98041;-85
2022/09/07 10:01:57;;;;;;;7.97;4.28;;;;;;;31.96;27.23;100237.81;5065989;27;98273;-86
2022/09/07 10:04:22;;;;;;;6.35;3.65;;;;;;;31.54;27.71;100235.88;5095487;27;97306;-86
2022/09/07 10:06:50;;;;;;;12.20;3.78;;;;;;;30.77;28.48;100222.69;5101358;27;99772;-86
2022/09/07 10:09:18;;;;;;;7.32;4.05;;;;;;;30.56;28.94;100234.25;5090759;27;98899;-86
2022/09/07 10:11:51;;;;;;;9.65;3.88;;;;;;;30.52;29.44;100238.38;5089853;27;97023;-85
2022/09/07 10:14:18;;;;;;;9.35;3.72;;;;;;;30.26;29.63;100236.91;5078713;27;98850;-87
2022/09/07 10:16:44;;;;;;;6.97;4.10;;;;;;;29.80;30.16;100219.81;5078385;27;97347;-85
2022/09/07 10:19:33;;;;;;;12.18;4.20;;;;;;;29.20;31.52;100219.41;5084032;27;97680;-87
2022/09/07 10:22:02;;;;;;;6.90;3.63;;;;;;;29.47;31.62;100237.03;5067187;27;97960;-83
2022/09/07 10:24:33;;;;;;;8.63;3.63;;;;;;;29.04;31.06;100231.16;5092509;27;100670;-87
2022/09/07 10:26:58;;;;;;;8.63;4.15;;;;;;;28.21;31.59;100251.09;5070136;27;97346;-84
2022/09/07 10:29:33;;;;;;;6.90;4.00;;;;;;;27.66;32.66;100222.00;5091857;27;96667;-85
2022/09/07 10:32:25;;;;;;;8.43;4.78;;;;;;;27.40;33.32;100232.91;5110808;27;97091;-84
2022/09/07 10:35:07;;;;;;;10.35;4.40;;;;;;;26.81;34.01;100235.44;5080884;27;101335;-86
2022/09/07 10:38:00;;;;;;;11.10;4.05;;;;;;;26.86;34.53;100241.22;5090152;27;100800;-86
2022/09/07 10:40:38;;;;;;;11.43;4.05;;;;;;;26.62;34.83;100239.22;5104087;27;96813;-86
2022/09/07 10:43:17;;;;;;;7.22;3.85;;;;;;;26.37;34.77;100245.38;5100212;27;97604;-85
2022/09/07 10:46:07;;;;;;;6.65;3.95;;;;;;;26.20;35.28;100237.16;5094875;27;97393;-85
2022/09/07 10:48:45;;;;;;;5.80;3.42;;;;;;;26.09;35.95;100229.38;5100669;27;99331;-83
2022/09/07 10:51:16;;;;;;;7.68;4.38;;;;;;;25.78;36.12;100231.56;5110335;27;96673;-85
2022/09/07 10:53:44;;;;;;;6.72;3.70;;;;;;;25.72;36.55;100224.94;5081998;27;97065;-86
2022/09/07 10:56:23;;;;;;;8.55;4.00;;;;;;;25.81;36.74;100209.75;5109045;27;97729;-86
2022/09/07 10:59:09;;;;;;;8.95;4.25;;;;;;;25.50;37.32;100228.88;5086085;27;97678;-86
2022/09/07 11:01:55;;;;;;;7.57;4.57;;;;;;;25.42;38.04;100228.78;5096769;27;97015;-86
2022/09/07 11:04:33;;;;;;;9.50;4.30;;;;;;;25.25;38.51;100224.25;5095774;27;99824;-85
2022/09/07 11:07:18;;;;;;;7.93;4.22;;;;;;;24.84;38.50;100212.91;5089484;27;97500;-82
2022/09/07 11:10:31;;;;;;;5.93;3.90;;;;;;;24.90;38.72;100201.63;5095169;27;97459;-85
2022/09/07 11:12:58;;;;;;;12.20;4.65;;;;;;;24.88;39.10;100219.69;5080141;27;97132;-84
2022/09/07 11:15:30;;;;;;;6.35;4.13;;;;;;;24.76;39.24;100212.81;5089307;27;97367;-82
2022/09/07 11:18:01;;;;;;;7.30;3.88;;;;;;;24.73;39.51;100211.28;5087531;27;97452;-85
2022/09/07 11:20:41;;;;;;;8.05;3.70;;;;;;;24.78;39.63;100218.88;5096593;27;97855;-83
2022/09/07 11:23:35;;;;;;;6.05;3.67;;;;;;;24.68;39.31;100210.88;5097637;27;96912;-85
2022/09/07 11:26:11;;;;;;;8.73;3.92;;;;;;;24.46;39.89;100195.09;5087268;27;96919;-83
2022/09/07 11:28:58;;;;;;;9.65;4.20;;;;;;;24.76;39.92;100213.66;5092585;27;98108;-84
2022/09/07 11:31:54;;;;;;;19.42;4.07;;;;;;;24.82;40.11;100205.03;5087113;27;97858;-83
2022/09/07 11:34:35;;;;;;;5.93;3.80;;;;;;;24.93;40.37;100208.50;5086769;27;98198;-84
2022/09/07 11:37:25;;;;;;;6.40;3.80;;;;;;;24.73;39.69;100188.97;5079100;27;96954;-84
2022/09/07 11:40:03;;;;;;;5.57;3.80;;;;;;;24.68;40.54;100191.25;5084297;27;98142;-82